Winter Harbour, Canada
Current Conditions -  °F | °C
As of 1:00 AM on Thursday 18 Dec 2014 (Local Time) from CYZT Reporting Station
Few Clouds Few Clouds  
Wind Chill: 25°   Ceiling: Unl
Heat Index: 30°   Visibility: 15mi
Dew Point: 30°   Wind: 5mph
Humidity: 100%   Direction: 160°SSE
Pressure: 29.83"   Gusts: NA
Location:  50.52°N, 128.03°W
Report Text: CYZT 180900Z 16004KT 090V250 15SM FEW011 M01/M01 A2983 RMK SF1 SF TR SLP102
Loading
Personal Weather Stations






























Interactive Weather Map New forecast layout! Learn more

10-Day Weather Forecast

Advertisements
Track Severe Weather on mobile